EDT,Max TemperatureF,Mean TemperatureF,Min TemperatureF,Max Dew PointF,MeanDew PointF,Min DewpointF,Max Humidity, Mean Humidity, Min Humidity, Max Sea Level PressureIn, Mean Sea Level PressureIn, Min Sea Level PressureIn, Max VisibilityMiles, Mean VisibilityMiles, Min VisibilityMiles, Max Wind SpeedMPH, Mean Wind SpeedMPH, Max Gust SpeedMPH,PrecipitationIn, CloudCover, Events, WindDirDegrees
2014-3-1,28,8,-13,11,-6,-19,79,52,25,30.43,30.23,30.01,10,10,7,6,0,,0.00,5,,268
2014-3-2,26,13,0,19,9,-5,81,65,46,30.10,30.03,29.96,10,6,1,14,6,,0.00,7,Snow,319
2014-3-3,15,2,-11,-2,-11,-18,83,60,35,30.33,30.18,30.06,10,10,6,15,3,20,0.00,0,,281
2014-3-4,19,0,-18,10,-2,-24,88,69,19,30.36,30.26,30.20,10,5,1,9,1,,0.00,6,Snow,292
2014-3-5,19,8,-6,9,5,-11,85,70,52,30.58,30.29,30.20,10,4,1,12,2,,0.00,7,Snow,334
2014-3-6,27,4,-18,-6,-15,-24,83,52,10,30.71,30.60,30.50,10,10,7,6,0,,0.00,0,,317
2014-3-7,42,16,-11,7,-7,-18,79,48,10,30.48,30.22,29.95,10,10,7,9,1,,0.00,0,,296
2014-3-8,39,22,6,25,14,2,84,67,42,29.93,29.85,29.75,10,9,6,13,3,,0.00,5,,317
2014-3-9,27,14,0,9,2,-5,92,58,31,29.98,29.92,29.84,10,10,8,14,3,24,0.00,2,,286
2014-3-10,34,26,17,27,16,6,82,66,56,29.84,29.71,29.53,10,7,1,7,1,,0.00,8,Snow,208
2014-3-11,39,30,21,33,28,20,96,86,62,29.73,29.54,29.41,10,4,0,13,3,17,0.09,6,Fog-Rain-Snow,256
2014-3-12,33,27,21,30,26,15,96,88,74,29.73,29.48,29.18,7,1,0,14,3,24,0.60,7,Fog-Snow,29
2014-3-13,19,12,1,15,4,-7,84,71,58,29.91,29.42,29.16,10,2,0,18,10,26,0.10,7,Fog-Snow,328
2014-3-14,27,3,-20,19,-2,-25,91,72,40,30.12,29.98,29.80,10,8,0,7,1,,0.00,3,,297
2014-3-15,46,33,21,34,29,18,92,83,58,29.83,29.70,29.61,10,6,0,10,4,22,0.14,8,Fog-Rain-Snow,246
2014-3-16,27,16,0,23,5,-10,85,62,39,30.25,30.02,29.79,10,8,0,10,6,18,0.00,5,Fog-Snow,115
2014-3-17,21,3,-15,-5,-11,-22,91,56,29,30.23,30.17,30.09,10,10,6,13,9,,0.00,0,,102
2014-3-18,36,12,-13,7,-8,-19,80,51,13,30.37,30.32,30.22,10,9,5,12,10,,0.00,0,,111
2014-3-19,39,20,1,27,14,-4,86,67,23,30.36,30.14,29.92,10,5,0,22,13,33,0.04,5,Snow,123
2014-3-20,37,34,30,34,29,24,93,82,65,29.92,29.65,29.53,10,4,0,28,14,38,0.13,8,Fog-Rain-Snow,117
2014-3-21,32,28,19,26,20,11,82,69,51,30.01,29.75,29.61,10,6,1,15,8,24,0.00,7,Snow,156
2014-3-22,37,20,3,30,21,0,84,74,57,30.03,29.76,29.57,10,6,0,15,10,25,0.00,7,Snow,136
2014-3-23,30,16,1,22,11,-6,81,63,34,30.15,29.96,29.85,10,7,0,12,7,20,0.00,6,Snow,102
2014-3-24,21,4,-13,-4,-9,-20,83,57,30,30.18,30.13,30.07,10,10,7,12,9,,0.00,0,,102
2014-3-25,28,7,-14,6,-4,-19,79,58,33,30.13,30.06,30.01,10,10,8,14,10,21,0.00,2,,117
2014-3-26,28,18,8,14,9,-2,80,65,36,30.03,29.85,29.75,10,6,1,16,8,25,0.00,6,Snow,78
2014-3-27,34,18,3,20,0,-7,61,39,23,30.29,30.21,30.06,10,10,10,15,7,,0.00,2,,121
2014-3-28,39,34,30,36,31,20,97,90,61,30.14,29.94,29.83,10,2,0,15,11,,0.33,8,Fog-Rain-Snow,108
2014-3-29,46,40,35,39,34,29,97,83,54,30.29,30.15,29.97,10,7,0,16,10,,0.03,7,Fog-Rain,106
2014-3-30,39,36,34,34,30,27,87,78,73,30.04,29.84,29.76,10,6,1,32,21,44,0.56,8,Rain,96
2014-3-31,36,32,28,29,25,21,88,75,62,30.14,29.96,29.82,10,8,1,15,10,24,0.03,8,Rain-Snow,47